sensor_id;sensor_type;location;lat;lon;timestamp;temperature;humidity
21216;DHT22;10765;50.954;5.322;2023-05-10T00:00:41;13.20;99.90
21216;DHT22;10765;50.954;5.322;2023-05-10T00:03:08;13.20;99.90
21216;DHT22;10765;50.954;5.322;2023-05-10T00:05:35;13.20;99.90
21216;DHT22;10765;50.954;5.322;2023-05-10T00:08:03;13.10;99.90
21216;DHT22;10765;50.954;5.322;2023-05-10T00:10:30;13.20;99.90
21216;DHT22;10765;50.954;5.322;2023-05-10T00:12:57;13.10;99.90
21216;DHT22;10765;50.954;5.322;2023-05-10T00:15:24;13.10;99.90
21216;DHT22;10765;50.954;5.322;2023-05-10T00:17:51;13.10;99.90
21216;DHT22;10765;50.954;5.322;2023-05-10T00:20:18;13.10;99.90
21216;DHT22;10765;50.954;5.322;2023-05-10T00:22:45;13.10;99.90
21216;DHT22;10765;50.954;5.322;2023-05-10T00:25:13;13.10;99.90
21216;DHT22;10765;50.954;5.322;2023-05-10T00:27:40;13.00;99.90
21216;DHT22;10765;50.954;5.322;2023-05-10T00:30:08;13.10;99.90
21216;DHT22;10765;50.954;5.322;2023-05-10T00:32:35;13.10;99.90
21216;DHT22;10765;50.954;5.322;2023-05-10T00:35:02;13.10;99.90
21216;DHT22;10765;50.954;5.322;2023-05-10T00:37:28;13.10;99.90
21216;DHT22;10765;50.954;5.322;2023-05-10T00:39:55;13.10;99.90
21216;DHT22;10765;50.954;5.322;2023-05-10T00:42:24;13.20;99.90
21216;DHT22;10765;50.954;5.322;2023-05-10T00:44:50;13.20;99.90
21216;DHT22;10765;50.954;5.322;2023-05-10T00:47:17;13.20;99.90
21216;DHT22;10765;50.954;5.322;2023-05-10T00:49:45;13.20;99.90
21216;DHT22;10765;50.954;5.322;2023-05-10T00:52:12;13.10;99.90
21216;DHT22;10765;50.954;5.322;2023-05-10T00:54:39;13.10;99.90
21216;DHT22;10765;50.954;5.322;2023-05-10T00:57:06;13.20;99.90
21216;DHT22;10765;50.954;5.322;2023-05-10T00:59:34;13.10;99.90
21216;DHT22;10765;50.954;5.322;2023-05-10T01:02:01;13.00;99.90
21216;DHT22;10765;50.954;5.322;2023-05-10T01:04:28;13.10;99.90
21216;DHT22;10765;50.954;5.322;2023-05-10T01:06:56;13.10;99.90
21216;DHT22;10765;50.954;5.322;2023-05-10T01:09:23;13.00;99.90
21216;DHT22;10765;50.954;5.322;2023-05-10T01:11:52;13.00;99.90
21216;DHT22;10765;50.954;5.322;2023-05-10T01:14:19;13.00;99.90
21216;DHT22;10765;50.954;5.322;2023-05-10T01:16:49;13.00;99.90
21216;DHT22;10765;50.954;5.322;2023-05-10T01:19:19;12.90;99.90
21216;DHT22;10765;50.954;5.322;2023-05-10T01:21:52;13.00;99.90
21216;DHT22;10765;50.954;5.322;2023-05-10T01:24:46;13.00;99.90
21216;DHT22;10765;50.954;5.322;2023-05-10T01:27:41;12.90;99.90
21216;DHT22;10765;50.954;5.322;2023-05-10T01:30:30;12.90;99.90
21216;DHT22;10765;50.954;5.322;2023-05-10T01:33:08;12.90;99.90
21216;DHT22;10765;50.954;5.322;2023-05-10T01:35:39;12.90;99.90
21216;DHT22;10765;50.954;5.322;2023-05-10T01:38:14;12.80;99.90
21216;DHT22;10765;50.954;5.322;2023-05-10T01:40:51;12.80;99.90
21216;DHT22;10765;50.954;5.322;2023-05-10T01:43:22;12.80;99.90
21216;DHT22;10765;50.954;5.322;2023-05-10T01:45:59;12.80;99.90
21216;DHT22;10765;50.954;5.322;2023-05-10T01:48:32;12.80;99.90
21216;DHT22;10765;50.954;5.322;2023-05-10T01:50:59;12.70;99.90
21216;DHT22;10765;50.954;5.322;2023-05-10T01:53:27;12.70;99.90
21216;DHT22;10765;50.954;5.322;2023-05-10T01:55:55;12.80;99.90
21216;DHT22;10765;50.954;5.322;2023-05-10T01:58:24;12.80;99.90
21216;DHT22;10765;50.954;5.322;2023-05-10T02:00:52;12.70;99.90
21216;DHT22;10765;50.954;5.322;2023-05-10T02:03:22;12.80;99.90
21216;DHT22;10765;50.954;5.322;2023-05-10T02:05:52;12.80;99.90
21216;DHT22;10765;50.954;5.322;2023-05-10T02:08:21;12.90;99.90
21216;DHT22;10765;50.954;5.322;2023-05-10T02:10:50;12.90;99.90
21216;DHT22;10765;50.954;5.322;2023-05-10T02:13:18;12.90;99.90
21216;DHT22;10765;50.954;5.322;2023-05-10T02:15:47;12.80;99.90
21216;DHT22;10765;50.954;5.322;2023-05-10T02:18:16;12.80;99.90
21216;DHT22;10765;50.954;5.322;2023-05-10T02:20:44;12.80;99.90
21216;DHT22;10765;50.954;5.322;2023-05-10T02:23:13;12.80;99.90
21216;DHT22;10765;50.954;5.322;2023-05-10T02:25:43;12.80;99.90
21216;DHT22;10765;50.954;5.322;2023-05-10T02:28:11;12.80;99.90
21216;DHT22;10765;50.954;5.322;2023-05-10T02:30:39;12.80;99.90
21216;DHT22;10765;50.954;5.322;2023-05-10T02:33:06;12.90;99.90
21216;DHT22;10765;50.954;5.322;2023-05-10T02:35:33;12.90;99.90
21216;DHT22;10765;50.954;5.322;2023-05-10T02:38:01;12.90;99.90
21216;DHT22;10765;50.954;5.322;2023-05-10T02:40:30;12.90;99.90
21216;DHT22;10765;50.954;5.322;2023-05-10T02:42:59;12.90;99.90
21216;DHT22;10765;50.954;5.322;2023-05-10T02:45:30;12.90;99.90
21216;DHT22;10765;50.954;5.322;2023-05-10T02:47:58;12.90;99.90
21216;DHT22;10765;50.954;5.322;2023-05-10T02:50:27;13.00;99.90
21216;DHT22;10765;50.954;5.322;2023-05-10T02:53:00;13.00;99.90
21216;DHT22;10765;50.954;5.322;2023-05-10T02:55:35;12.90;99.90
21216;DHT22;10765;50.954;5.322;2023-05-10T02:58:03;12.90;99.90
21216;DHT22;10765;50.954;5.322;2023-05-10T03:00:31;13.00;99.90
21216;DHT22;10765;50.954;5.322;2023-05-10T03:02:58;13.00;99.90
21216;DHT22;10765;50.954;5.322;2023-05-10T03:05:25;13.00;99.90
21216;DHT22;10765;50.954;5.322;2023-05-10T03:07:53;13.00;99.90
21216;DHT22;10765;50.954;5.322;2023-05-10T03:10:22;13.00;99.90
21216;DHT22;10765;50.954;5.322;2023-05-10T03:13:05;13.00;99.90
21216;DHT22;10765;50.954;5.322;2023-05-10T03:15:40;13.00;99.90
21216;DHT22;10765;50.954;5.322;2023-05-10T03:18:15;13.20;99.90
21216;DHT22;10765;50.954;5.322;2023-05-10T03:20:45;13.30;99.90
21216;DHT22;10765;50.954;5.322;2023-05-10T03:23:21;13.30;99.90
21216;DHT22;10765;50.954;5.322;2023-05-10T03:25:50;13.30;99.90
21216;DHT22;10765;50.954;5.322;2023-05-10T03:28:20;13.20;99.90
21216;DHT22;10765;50.954;5.322;2023-05-10T03:30:47;13.20;99.90
21216;DHT22;10765;50.954;5.322;2023-05-10T03:33:14;13.20;99.90
21216;DHT22;10765;50.954;5.322;2023-05-10T03:35:41;13.20;99.90
21216;DHT22;10765;50.954;5.322;2023-05-10T03:38:09;13.10;99.90
21216;DHT22;10765;50.954;5.322;2023-05-10T03:40:36;13.20;99.90
21216;DHT22;10765;50.954;5.322;2023-05-10T03:43:03;13.10;99.90
21216;DHT22;10765;50.954;5.322;2023-05-10T03:45:32;13.20;99.90
21216;DHT22;10765;50.954;5.322;2023-05-10T03:47:58;13.20;99.90
21216;DHT22;10765;50.954;5.322;2023-05-10T03:50:25;13.10;99.90
21216;DHT22;10765;50.954;5.322;2023-05-10T03:52:52;13.20;99.90
21216;DHT22;10765;50.954;5.322;2023-05-10T03:55:19;13.10;99.90
21216;DHT22;10765;50.954;5.322;2023-05-10T03:57:47;13.10;99.90
21216;DHT22;10765;50.954;5.322;2023-05-10T04:00:15;13.20;99.90
21216;DHT22;10765;50.954;5.322;2023-05-10T04:02:44;13.20;99.90
21216;DHT22;10765;50.954;5.322;2023-05-10T04:05:11;13.30;99.90
21216;DHT22;10765;50.954;5.322;2023-05-10T04:07:38;13.30;99.90
21216;DHT22;10765;50.954;5.322;2023-05-10T04:10:05;13.10;99.90
21216;DHT22;10765;50.954;5.322;2023-05-10T04:12:32;13.00;99.90
21216;DHT22;10765;50.954;5.322;2023-05-10T04:14:59;12.90;99.90
21216;DHT22;10765;50.954;5.322;2023-05-10T04:17:26;12.90;99.90
21216;DHT22;10765;50.954;5.322;2023-05-10T04:19:55;12.90;99.90
21216;DHT22;10765;50.954;5.322;2023-05-10T04:22:22;12.90;99.90
21216;DHT22;10765;50.954;5.322;2023-05-10T04:24:49;12.90;99.90
21216;DHT22;10765;50.954;5.322;2023-05-10T04:27:16;13.00;99.90
21216;DHT22;10765;50.954;5.322;2023-05-10T04:29:43;13.00;99.90
21216;DHT22;10765;50.954;5.322;2023-05-10T04:32:10;13.00;99.90
21216;DHT22;10765;50.954;5.322;2023-05-10T04:34:37;12.90;99.90
21216;DHT22;10765;50.954;5.322;2023-05-10T04:37:05;12.70;99.90
21216;DHT22;10765;50.954;5.322;2023-05-10T04:39:32;12.60;99.90
21216;DHT22;10765;50.954;5.322;2023-05-10T04:42:00;12.60;99.90
21216;DHT22;10765;50.954;5.322;2023-05-10T04:44:28;12.60;99.90
21216;DHT22;10765;50.954;5.322;2023-05-10T04:46:55;12.60;99.90
21216;DHT22;10765;50.954;5.322;2023-05-10T04:49:22;12.60;99.90
21216;DHT22;10765;50.954;5.322;2023-05-10T04:51:49;12.60;99.90
21216;DHT22;10765;50.954;5.322;2023-05-10T04:54:17;12.60;99.90
21216;DHT22;10765;50.954;5.322;2023-05-10T04:56:44;12.50;99.90
21216;DHT22;10765;50.954;5.322;2023-05-10T04:59:11;12.50;99.90
21216;DHT22;10765;50.954;5.322;2023-05-10T05:01:37;12.50;99.90
21216;DHT22;10765;50.954;5.322;2023-05-10T05:04:04;12.50;99.90
21216;DHT22;10765;50.954;5.322;2023-05-10T05:06:32;12.40;99.90
21216;DHT22;10765;50.954;5.322;2023-05-10T05:08:59;12.40;99.90
21216;DHT22;10765;50.954;5.322;2023-05-10T05:11:27;12.40;99.90
21216;DHT22;10765;50.954;5.322;2023-05-10T05:13:54;12.40;99.90
21216;DHT22;10765;50.954;5.322;2023-05-10T05:16:21;12.40;99.90
21216;DHT22;10765;50.954;5.322;2023-05-10T05:18:48;12.40;99.90
21216;DHT22;10765;50.954;5.322;2023-05-10T05:21:15;12.50;99.90
21216;DHT22;10765;50.954;5.322;2023-05-10T05:23:42;12.50;99.90
21216;DHT22;10765;50.954;5.322;2023-05-10T05:26:09;12.50;99.90
21216;DHT22;10765;50.954;5.322;2023-05-10T05:28:38;12.50;99.90
21216;DHT22;10765;50.954;5.322;2023-05-10T05:31:05;12.60;99.90
21216;DHT22;10765;50.954;5.322;2023-05-10T05:33:32;12.60;99.90
21216;DHT22;10765;50.954;5.322;2023-05-10T05:36:00;12.70;99.90
21216;DHT22;10765;50.954;5.322;2023-05-10T05:38:27;12.80;99.90
21216;DHT22;10765;50.954;5.322;2023-05-10T05:40:54;12.80;99.90
21216;DHT22;10765;50.954;5.322;2023-05-10T05:43:21;12.80;99.90
21216;DHT22;10765;50.954;5.322;2023-05-10T05:45:51;12.70;99.90
21216;DHT22;10765;50.954;5.322;2023-05-10T05:48:18;12.80;99.90
21216;DHT22;10765;50.954;5.322;2023-05-10T05:50:45;12.80;99.90
21216;DHT22;10765;50.954;5.322;2023-05-10T05:53:12;12.90;99.90
21216;DHT22;10765;50.954;5.322;2023-05-10T05:55:39;12.90;99.90
21216;DHT22;10765;50.954;5.322;2023-05-10T05:58:06;12.90;99.90
21216;DHT22;10765;50.954;5.322;2023-05-10T06:00:33;12.90;99.90
21216;DHT22;10765;50.954;5.322;2023-05-10T06:03:01;13.00;99.90
21216;DHT22;10765;50.954;5.322;2023-05-10T06:05:28;12.90;99.90
21216;DHT22;10765;50.954;5.322;2023-05-10T06:07:55;12.80;99.90
21216;DHT22;10765;50.954;5.322;2023-05-10T06:10:22;13.10;99.90
21216;DHT22;10765;50.954;5.322;2023-05-10T06:12:50;13.10;99.90
21216;DHT22;10765;50.954;5.322;2023-05-10T06:15:18;13.00;99.90
21216;DHT22;10765;50.954;5.322;2023-05-10T06:17:45;13.00;99.90
21216;DHT22;10765;50.954;5.322;2023-05-10T06:20:16;12.90;99.90
21216;DHT22;10765;50.954;5.322;2023-05-10T06:22:43;12.90;99.90
21216;DHT22;10765;50.954;5.322;2023-05-10T06:25:10;13.00;99.90
21216;DHT22;10765;50.954;5.322;2023-05-10T06:27:37;13.00;99.90
21216;DHT22;10765;50.954;5.322;2023-05-10T06:30:05;13.10;99.90
21216;DHT22;10765;50.954;5.322;2023-05-10T06:32:33;13.20;99.90
21216;DHT22;10765;50.954;5.322;2023-05-10T06:35:00;13.20;99.90
21216;DHT22;10765;50.954;5.322;2023-05-10T06:37:28;13.20;99.90
21216;DHT22;10765;50.954;5.322;2023-05-10T06:39:55;13.20;99.90
21216;DHT22;10765;50.954;5.322;2023-05-10T06:42:22;13.20;99.90
21216;DHT22;10765;50.954;5.322;2023-05-10T06:44:50;13.10;99.90
21216;DHT22;10765;50.954;5.322;2023-05-10T06:47:17;13.00;99.90
21216;DHT22;10765;50.954;5.322;2023-05-10T06:49:44;13.00;99.90
21216;DHT22;10765;50.954;5.322;2023-05-10T06:52:11;13.00;99.90
21216;DHT22;10765;50.954;5.322;2023-05-10T06:54:39;13.00;99.90
21216;DHT22;10765;50.954;5.322;2023-05-10T06:57:06;13.00;99.90
21216;DHT22;10765;50.954;5.322;2023-05-10T06:59:33;13.00;99.90
21216;DHT22;10765;50.954;5.322;2023-05-10T07:02:00;13.10;99.90
21216;DHT22;10765;50.954;5.322;2023-05-10T07:04:27;13.10;99.90
21216;DHT22;10765;50.954;5.322;2023-05-10T07:06:54;13.00;99.90
21216;DHT22;10765;50.954;5.322;2023-05-10T07:09:21;12.90;99.90
21216;DHT22;10765;50.954;5.322;2023-05-10T07:11:51;13.00;99.90
21216;DHT22;10765;50.954;5.322;2023-05-10T07:14:18;13.00;99.90
21216;DHT22;10765;50.954;5.322;2023-05-10T07:16:45;13.30;99.90
21216;DHT22;10765;50.954;5.322;2023-05-10T07:19:12;13.40;99.90
21216;DHT22;10765;50.954;5.322;2023-05-10T07:21:39;13.30;99.90
21216;DHT22;10765;50.954;5.322;2023-05-10T07:24:08;13.20;99.90
21216;DHT22;10765;50.954;5.322;2023-05-10T07:26:35;13.40;99.90
21216;DHT22;10765;50.954;5.322;2023-05-10T07:29:04;13.30;99.90
21216;DHT22;10765;50.954;5.322;2023-05-10T07:31:30;13.40;99.90
21216;DHT22;10765;50.954;5.322;2023-05-10T07:33:58;13.30;99.90
21216;DHT22;10765;50.954;5.322;2023-05-10T07:36:24;13.40;99.90
21216;DHT22;10765;50.954;5.322;2023-05-10T07:38:51;13.40;99.90
21216;DHT22;10765;50.954;5.322;2023-05-10T07:41:18;13.50;99.90
21216;DHT22;10765;50.954;5.322;2023-05-10T07:43:46;13.70;99.90
21216;DHT22;10765;50.954;5.322;2023-05-10T07:46:14;13.70;99.90
21216;DHT22;10765;50.954;5.322;2023-05-10T07:48:41;13.60;99.90
21216;DHT22;10765;50.954;5.322;2023-05-10T07:51:08;13.50;99.90
21216;DHT22;10765;50.954;5.322;2023-05-10T07:53:36;13.60;99.90
21216;DHT22;10765;50.954;5.322;2023-05-10T07:56:22;13.70;99.90
21216;DHT22;10765;50.954;5.322;2023-05-10T07:58:50;14.00;99.90
21216;DHT22;10765;50.954;5.322;2023-05-10T08:01:19;14.20;99.90
21216;DHT22;10765;50.954;5.322;2023-05-10T08:03:46;13.90;99.90
21216;DHT22;10765;50.954;5.322;2023-05-10T08:06:13;13.60;99.90
21216;DHT22;10765;50.954;5.322;2023-05-10T08:08:41;13.60;99.90
21216;DHT22;10765;50.954;5.322;2023-05-10T08:11:08;13.40;99.90
21216;DHT22;10765;50.954;5.322;2023-05-10T08:13:35;13.40;99.90
21216;DHT22;10765;50.954;5.322;2023-05-10T08:16:02;13.60;99.90
21216;DHT22;10765;50.954;5.322;2023-05-10T08:18:30;13.60;99.90
21216;DHT22;10765;50.954;5.322;2023-05-10T08:20:57;13.60;99.90
21216;DHT22;10765;50.954;5.322;2023-05-10T08:23:24;13.40;99.90
21216;DHT22;10765;50.954;5.322;2023-05-10T08:25:51;13.50;99.90
21216;DHT22;10765;50.954;5.322;2023-05-10T08:28:18;13.50;99.90
21216;DHT22;10765;50.954;5.322;2023-05-10T08:30:45;13.60;99.90
21216;DHT22;10765;50.954;5.322;2023-05-10T08:33:12;13.50;99.90
21216;DHT22;10765;50.954;5.322;2023-05-10T08:35:40;13.30;99.90
21216;DHT22;10765;50.954;5.322;2023-05-10T08:38:07;13.30;99.90
21216;DHT22;10765;50.954;5.322;2023-05-10T08:40:34;13.30;99.90
21216;DHT22;10765;50.954;5.322;2023-05-10T08:43:05;13.40;99.90
21216;DHT22;10765;50.954;5.322;2023-05-10T08:45:35;13.30;99.90
21216;DHT22;10765;50.954;5.322;2023-05-10T08:48:05;13.20;99.90
21216;DHT22;10765;50.954;5.322;2023-05-10T08:50:32;13.20;99.90
21216;DHT22;10765;50.954;5.322;2023-05-10T08:53:05;12.90;99.90
21216;DHT22;10765;50.954;5.322;2023-05-10T08:55:32;13.00;99.90
21216;DHT22;10765;50.954;5.322;2023-05-10T08:57:59;12.90;99.90
21216;DHT22;10765;50.954;5.322;2023-05-10T09:00:27;12.90;99.90
21216;DHT22;10765;50.954;5.322;2023-05-10T09:02:54;12.80;99.90
21216;DHT22;10765;50.954;5.322;2023-05-10T09:05:22;12.80;99.90
21216;DHT22;10765;50.954;5.322;2023-05-10T09:07:49;12.60;99.90
21216;DHT22;10765;50.954;5.322;2023-05-10T09:10:18;12.80;99.90
21216;DHT22;10765;50.954;5.322;2023-05-10T09:12:45;12.90;99.90
21216;DHT22;10765;50.954;5.322;2023-05-10T09:15:15;13.00;99.90
21216;DHT22;10765;50.954;5.322;2023-05-10T09:17:44;13.00;99.90
21216;DHT22;10765;50.954;5.322;2023-05-10T09:20:12;13.20;99.90
21216;DHT22;10765;50.954;5.322;2023-05-10T09:22:39;13.30;99.90
21216;DHT22;10765;50.954;5.322;2023-05-10T09:25:08;13.40;99.90
21216;DHT22;10765;50.954;5.322;2023-05-10T09:27:37;13.70;99.90
21216;DHT22;10765;50.954;5.322;2023-05-10T09:30:06;13.50;99.90
21216;DHT22;10765;50.954;5.322;2023-05-10T09:32:37;13.50;99.90
21216;DHT22;10765;50.954;5.322;2023-05-10T09:35:11;13.50;99.90
21216;DHT22;10765;50.954;5.322;2023-05-10T09:37:39;13.60;99.90
21216;DHT22;10765;50.954;5.322;2023-05-10T09:40:10;13.80;99.90
21216;DHT22;10765;50.954;5.322;2023-05-10T09:42:41;13.90;99.90
21216;DHT22;10765;50.954;5.322;2023-05-10T09:45:09;14.00;99.90
21216;DHT22;10765;50.954;5.322;2023-05-10T09:47:36;14.10;99.90
21216;DHT22;10765;50.954;5.322;2023-05-10T09:50:04;13.80;99.90
21216;DHT22;10765;50.954;5.322;2023-05-10T09:52:31;13.90;99.90
21216;DHT22;10765;50.954;5.322;2023-05-10T09:55:11;14.00;99.90
21216;DHT22;10765;50.954;5.322;2023-05-10T09:57:40;14.20;99.90
21216;DHT22;10765;50.954;5.322;2023-05-10T10:00:08;14.10;99.90
21216;DHT22;10765;50.954;5.322;2023-05-10T10:02:35;14.30;99.90
21216;DHT22;10765;50.954;5.322;2023-05-10T10:05:03;14.60;99.90
21216;DHT22;10765;50.954;5.322;2023-05-10T10:07:30;14.80;99.90
21216;DHT22;10765;50.954;5.322;2023-05-10T10:09:58;14.60;99.90
21216;DHT22;10765;50.954;5.322;2023-05-10T10:12:25;14.40;99.90
21216;DHT22;10765;50.954;5.322;2023-05-10T10:14:55;14.50;99.90
21216;DHT22;10765;50.954;5.322;2023-05-10T10:17:25;14.70;99.90
21216;DHT22;10765;50.954;5.322;2023-05-10T10:19:54;14.60;99.90
21216;DHT22;10765;50.954;5.322;2023-05-10T10:22:22;14.80;99.90
21216;DHT22;10765;50.954;5.322;2023-05-10T10:24:50;15.20;99.90
21216;DHT22;10765;50.954;5.322;2023-05-10T10:27:23;15.20;99.90
21216;DHT22;10765;50.954;5.322;2023-05-10T10:30:03;14.90;99.90
21216;DHT22;10765;50.954;5.322;2023-05-10T10:35:20;14.90;99.90
21216;DHT22;10765;50.954;5.322;2023-05-10T10:37:50;14.90;99.90
21216;DHT22;10765;50.954;5.322;2023-05-10T10:40:25;15.10;99.90
21216;DHT22;10765;50.954;5.322;2023-05-10T10:42:53;15.10;99.90
21216;DHT22;10765;50.954;5.322;2023-05-10T10:45:22;14.80;99.90
21216;DHT22;10765;50.954;5.322;2023-05-10T10:47:56;14.70;99.90
21216;DHT22;10765;50.954;5.322;2023-05-10T10:50:44;15.00;99.90
21216;DHT22;10765;50.954;5.322;2023-05-10T10:53:12;15.30;99.90
21216;DHT22;10765;50.954;5.322;2023-05-10T10:55:46;15.70;99.90
21216;DHT22;10765;50.954;5.322;2023-05-10T10:58:28;16.00;99.90
21216;DHT22;10765;50.954;5.322;2023-05-10T11:01:14;16.20;7.20
21216;DHT22;10765;50.954;5.322;2023-05-10T11:03:41;16.30;99.90
21216;DHT22;10765;50.954;5.322;2023-05-10T11:06:28;16.30;99.90
21216;DHT22;10765;50.954;5.322;2023-05-10T11:08:56;16.40;99.90
21216;DHT22;10765;50.954;5.322;2023-05-10T11:11:23;16.40;1.00
21216;DHT22;10765;50.954;5.322;2023-05-10T11:13:51;16.20;99.90
21216;DHT22;10765;50.954;5.322;2023-05-10T11:16:20;16.00;1.00
21216;DHT22;10765;50.954;5.322;2023-05-10T11:18:58;16.20;71.20
21216;DHT22;10765;50.954;5.322;2023-05-10T11:21:27;16.40;1.00
21216;DHT22;10765;50.954;5.322;2023-05-10T11:23:55;16.40;11.40
21216;DHT22;10765;50.954;5.322;2023-05-10T11:26:23;16.60;1.00
21216;DHT22;10765;50.954;5.322;2023-05-10T11:28:53;16.80;99.90
21216;DHT22;10765;50.954;5.322;2023-05-10T11:31:23;16.60;97.40
21216;DHT22;10765;50.954;5.322;2023-05-10T11:33:53;16.90;99.90
21216;DHT22;10765;50.954;5.322;2023-05-10T11:36:23;16.80;1.00
21216;DHT22;10765;50.954;5.322;2023-05-10T11:38:51;17.10;98.50
21216;DHT22;10765;50.954;5.322;2023-05-10T11:41:18;17.30;99.90
21216;DHT22;10765;50.954;5.322;2023-05-10T11:43:49;17.50;1.00
21216;DHT22;10765;50.954;5.322;2023-05-10T11:46:18;17.30;1.00
21216;DHT22;10765;50.954;5.322;2023-05-10T11:48:50;17.50;1.00
21216;DHT22;10765;50.954;5.322;2023-05-10T11:51:20;17.70;99.90
21216;DHT22;10765;50.954;5.322;2023-05-10T11:53:48;17.30;99.90
21216;DHT22;10765;50.954;5.322;2023-05-10T11:56:15;17.20;1.00
21216;DHT22;10765;50.954;5.322;2023-05-10T11:58:42;17.20;1.00
21216;DHT22;10765;50.954;5.322;2023-05-10T12:01:10;16.90;99.90
21216;DHT22;10765;50.954;5.322;2023-05-10T12:03:40;17.00;1.00
21216;DHT22;10765;50.954;5.322;2023-05-10T12:06:08;16.90;1.00
21216;DHT22;10765;50.954;5.322;2023-05-10T12:08:35;16.50;1.00
21216;DHT22;10765;50.954;5.322;2023-05-10T12:11:06;16.40;1.00
21216;DHT22;10765;50.954;5.322;2023-05-10T12:13:37;16.70;99.90
21216;DHT22;10765;50.954;5.322;2023-05-10T12:16:13;16.80;1.00
21216;DHT22;10765;50.954;5.322;2023-05-10T12:18:40;16.70;1.00
21216;DHT22;10765;50.954;5.322;2023-05-10T12:21:09;16.60;1.00
21216;DHT22;10765;50.954;5.322;2023-05-10T12:23:37;16.70;1.00
21216;DHT22;10765;50.954;5.322;2023-05-10T12:26:04;16.70;1.00
21216;DHT22;10765;50.954;5.322;2023-05-10T12:28:31;16.60;1.00
21216;DHT22;10765;50.954;5.322;2023-05-10T12:30:59;16.50;1.00
21216;DHT22;10765;50.954;5.322;2023-05-10T12:33:26;16.60;1.00
21216;DHT22;10765;50.954;5.322;2023-05-10T12:35:54;16.80;1.00
21216;DHT22;10765;50.954;5.322;2023-05-10T12:38:27;16.70;1.00
21216;DHT22;10765;50.954;5.322;2023-05-10T12:40:56;16.60;1.00
21216;DHT22;10765;50.954;5.322;2023-05-10T12:43:25;16.80;1.00
21216;DHT22;10765;50.954;5.322;2023-05-10T12:45:52;16.70;1.00
21216;DHT22;10765;50.954;5.322;2023-05-10T12:48:19;16.80;99.90
21216;DHT22;10765;50.954;5.322;2023-05-10T12:50:46;17.30;1.00
21216;DHT22;10765;50.954;5.322;2023-05-10T12:53:14;17.40;1.00
21216;DHT22;10765;50.954;5.322;2023-05-10T12:55:43;17.60;1.00
21216;DHT22;10765;50.954;5.322;2023-05-10T12:58:10;17.90;1.00
21216;DHT22;10765;50.954;5.322;2023-05-10T13:00:37;17.90;1.00
21216;DHT22;10765;50.954;5.322;2023-05-10T13:03:04;17.60;99.90
21216;DHT22;10765;50.954;5.322;2023-05-10T13:05:32;17.80;1.00
21216;DHT22;10765;50.954;5.322;2023-05-10T13:07:59;17.90;1.00
21216;DHT22;10765;50.954;5.322;2023-05-10T13:10:26;17.60;1.00
21216;DHT22;10765;50.954;5.322;2023-05-10T13:12:54;17.50;99.90
21216;DHT22;10765;50.954;5.322;2023-05-10T13:15:21;17.30;1.00
21216;DHT22;10765;50.954;5.322;2023-05-10T13:17:48;17.30;99.90
21216;DHT22;10765;50.954;5.322;2023-05-10T13:20:15;17.30;1.00
21216;DHT22;10765;50.954;5.322;2023-05-10T13:22:43;17.70;99.90
21216;DHT22;10765;50.954;5.322;2023-05-10T13:25:10;18.50;99.90
21216;DHT22;10765;50.954;5.322;2023-05-10T13:27:37;19.40;1.00
21216;DHT22;10765;50.954;5.322;2023-05-10T13:30:07;19.60;1.00
21216;DHT22;10765;50.954;5.322;2023-05-10T13:32:34;19.30;1.00
21216;DHT22;10765;50.954;5.322;2023-05-10T13:35:02;18.90;1.00
21216;DHT22;10765;50.954;5.322;2023-05-10T13:37:30;19.30;1.00
21216;DHT22;10765;50.954;5.322;2023-05-10T13:39:57;19.70;1.00
21216;DHT22;10765;50.954;5.322;2023-05-10T13:42:23;20.80;1.00
21216;DHT22;10765;50.954;5.322;2023-05-10T13:44:50;21.50;1.00
21216;DHT22;10765;50.954;5.322;2023-05-10T13:47:19;22.00;1.00
21216;DHT22;10765;50.954;5.322;2023-05-10T13:49:47;21.00;1.00
21216;DHT22;10765;50.954;5.322;2023-05-10T13:52:14;20.80;1.00
21216;DHT22;10765;50.954;5.322;2023-05-10T13:54:40;20.40;1.00
21216;DHT22;10765;50.954;5.322;2023-05-10T13:57:07;20.00;1.00
21216;DHT22;10765;50.954;5.322;2023-05-10T13:59:34;20.10;1.00
21216;DHT22;10765;50.954;5.322;2023-05-10T14:02:01;19.50;1.00
21216;DHT22;10765;50.954;5.322;2023-05-10T14:04:30;18.90;1.00
21216;DHT22;10765;50.954;5.322;2023-05-10T14:06:57;18.90;1.00
21216;DHT22;10765;50.954;5.322;2023-05-10T14:09:24;18.80;1.00
21216;DHT22;10765;50.954;5.322;2023-05-10T14:11:51;18.50;1.00
21216;DHT22;10765;50.954;5.322;2023-05-10T14:14:18;18.70;1.00
21216;DHT22;10765;50.954;5.322;2023-05-10T14:16:45;19.10;1.00
21216;DHT22;10765;50.954;5.322;2023-05-10T14:19:12;19.30;1.00
21216;DHT22;10765;50.954;5.322;2023-05-10T14:21:40;19.50;1.00
21216;DHT22;10765;50.954;5.322;2023-05-10T14:24:08;19.50;1.00
21216;DHT22;10765;50.954;5.322;2023-05-10T14:26:35;19.90;1.00
21216;DHT22;10765;50.954;5.322;2023-05-10T14:29:02;19.80;1.00
21216;DHT22;10765;50.954;5.322;2023-05-10T14:31:29;19.90;1.00
21216;DHT22;10765;50.954;5.322;2023-05-10T14:33:56;19.90;1.00
21216;DHT22;10765;50.954;5.322;2023-05-10T14:36:24;19.70;1.00
21216;DHT22;10765;50.954;5.322;2023-05-10T14:38:53;19.60;1.00
21216;DHT22;10765;50.954;5.322;2023-05-10T14:41:19;19.40;1.00
21216;DHT22;10765;50.954;5.322;2023-05-10T14:43:46;19.30;1.00
21216;DHT22;10765;50.954;5.322;2023-05-10T14:46:13;19.60;1.00
21216;DHT22;10765;50.954;5.322;2023-05-10T14:48:41;19.70;1.00
21216;DHT22;10765;50.954;5.322;2023-05-10T14:51:08;19.80;1.00
21216;DHT22;10765;50.954;5.322;2023-05-10T14:53:35;20.10;1.00
21216;DHT22;10765;50.954;5.322;2023-05-10T14:56:03;19.80;1.00
21216;DHT22;10765;50.954;5.322;2023-05-10T14:58:30;20.00;1.00
21216;DHT22;10765;50.954;5.322;2023-05-10T15:00:57;20.50;1.00
21216;DHT22;10765;50.954;5.322;2023-05-10T15:03:24;20.30;1.00
21216;DHT22;10765;50.954;5.322;2023-05-10T15:05:51;20.30;1.00
21216;DHT22;10765;50.954;5.322;2023-05-10T15:08:18;19.90;1.00
21216;DHT22;10765;50.954;5.322;2023-05-10T15:10:45;19.50;1.00
21216;DHT22;10765;50.954;5.322;2023-05-10T15:13:14;19.50;1.00
21216;DHT22;10765;50.954;5.322;2023-05-10T15:15:41;19.20;1.00
21216;DHT22;10765;50.954;5.322;2023-05-10T15:18:10;19.00;1.00
21216;DHT22;10765;50.954;5.322;2023-05-10T15:20:37;19.20;1.00
21216;DHT22;10765;50.954;5.322;2023-05-10T15:23:04;19.40;1.00
21216;DHT22;10765;50.954;5.322;2023-05-10T15:25:31;19.10;1.00
21216;DHT22;10765;50.954;5.322;2023-05-10T15:28:00;19.20;1.00
21216;DHT22;10765;50.954;5.322;2023-05-10T15:30:29;19.30;1.00
21216;DHT22;10765;50.954;5.322;2023-05-10T15:32:56;19.20;1.00
21216;DHT22;10765;50.954;5.322;2023-05-10T15:35:23;19.40;1.00
21216;DHT22;10765;50.954;5.322;2023-05-10T15:37:50;19.50;1.00
21216;DHT22;10765;50.954;5.322;2023-05-10T15:40:17;19.70;1.00
21216;DHT22;10765;50.954;5.322;2023-05-10T15:42:43;19.80;1.00
21216;DHT22;10765;50.954;5.322;2023-05-10T15:45:11;19.70;1.00